createdAt,value
2023-06-04T00:00:11.455Z,19.76
2023-06-04T00:01:16.765Z,19.82
2023-06-04T00:02:11.575Z,19.87
2023-06-04T00:03:11.613Z,19.90
2023-06-04T00:04:11.528Z,19.92
2023-06-04T00:05:11.450Z,19.95
2023-06-04T00:09:11.498Z,19.98
2023-06-04T00:11:11.589Z,19.96
2023-06-04T00:12:11.493Z,19.93
2023-06-04T00:13:11.479Z,19.95
2023-06-04T00:15:11.512Z,19.96
2023-06-04T00:16:11.469Z,19.97
2023-06-04T00:17:11.577Z,20.00
2023-06-04T00:18:11.500Z,20.04
2023-06-04T00:19:11.524Z,20.07
2023-06-04T00:20:11.505Z,20.10
2023-06-04T00:21:11.474Z,20.13
2023-06-04T00:22:11.561Z,20.12
2023-06-04T00:23:11.551Z,20.11
2023-06-04T00:24:13.728Z,20.10
2023-06-04T00:25:11.542Z,20.08
2023-06-04T00:26:11.501Z,20.04
2023-06-04T00:27:11.565Z,20.00
2023-06-04T00:28:11.529Z,19.94
2023-06-04T00:29:11.558Z,19.92
2023-06-04T00:32:11.667Z,19.93
2023-06-04T00:33:11.587Z,19.94
2023-06-04T00:34:11.541Z,19.95
2023-06-04T00:35:11.626Z,19.91
2023-06-04T00:36:11.600Z,19.87
2023-06-04T00:37:11.561Z,19.85
2023-06-04T00:38:11.566Z,19.81
2023-06-04T00:39:11.537Z,19.76
2023-06-04T00:40:11.517Z,19.73
2023-06-04T00:42:11.561Z,19.67
2023-06-04T00:43:11.601Z,19.64
2023-06-04T00:44:11.537Z,19.62
2023-06-04T00:45:11.594Z,19.61
2023-06-04T00:46:11.642Z,19.56
2023-06-04T00:47:11.538Z,19.57
2023-06-04T00:48:11.584Z,19.59
2023-06-04T00:49:11.596Z,19.62
2023-06-04T00:50:11.551Z,19.55
2023-06-04T00:51:11.603Z,19.48
2023-06-04T00:52:11.540Z,19.52
2023-06-04T00:53:11.589Z,19.55
2023-06-04T00:54:11.611Z,19.47
2023-06-04T00:55:11.589Z,19.46
2023-06-04T00:56:11.604Z,19.40
2023-06-04T00:57:11.554Z,19.37
2023-06-04T00:58:11.621Z,19.41
2023-06-04T00:59:11.658Z,19.45
2023-06-04T01:00:11.609Z,19.50
2023-06-04T01:01:11.642Z,19.56
2023-06-04T01:02:11.626Z,19.58
2023-06-04T01:03:11.718Z,19.62
2023-06-04T01:04:11.611Z,19.65
2023-06-04T01:05:11.600Z,19.67
2023-06-04T01:07:11.637Z,19.64
2023-06-04T01:08:11.603Z,19.62
2023-06-04T01:09:11.653Z,19.56
2023-06-04T01:10:11.657Z,19.48
2023-06-04T01:11:11.663Z,19.35
2023-06-04T01:12:11.647Z,19.30
2023-06-04T01:13:11.665Z,19.27
2023-06-04T01:15:11.611Z,19.25
2023-06-04T01:16:11.682Z,19.21
2023-06-04T01:17:11.756Z,19.20
2023-06-04T01:19:11.666Z,19.23
2023-06-04T01:20:11.634Z,19.24
2023-06-04T01:21:11.633Z,19.23
2023-06-04T01:22:11.709Z,19.22
2023-06-04T01:23:11.634Z,19.21
2023-06-04T01:26:11.683Z,19.23
2023-06-04T01:27:11.707Z,19.24
2023-06-04T01:28:11.719Z,19.25
2023-06-04T01:29:11.715Z,19.26
2023-06-04T01:30:11.691Z,19.25
2023-06-04T01:32:11.701Z,19.23
2023-06-04T01:33:11.705Z,19.21
2023-06-04T01:35:11.751Z,19.24
2023-06-04T01:36:11.692Z,19.26
2023-06-04T01:39:11.725Z,19.27
2023-06-04T01:40:11.759Z,19.28
2023-06-04T01:41:11.752Z,19.22
2023-06-04T01:42:11.755Z,19.19
2023-06-04T01:43:11.746Z,19.16
2023-06-04T01:44:11.735Z,19.15
2023-06-04T01:45:11.770Z,19.16
2023-06-04T01:46:11.786Z,19.20
2023-06-04T01:47:11.693Z,19.19
2023-06-04T01:48:11.750Z,19.18
2023-06-04T01:49:11.771Z,19.19
2023-06-04T01:50:11.756Z,19.21
2023-06-04T01:51:11.724Z,19.22
2023-06-04T01:52:11.706Z,19.17
2023-06-04T01:53:11.744Z,19.12
2023-06-04T01:54:11.742Z,19.00
2023-06-04T01:55:11.769Z,18.99
2023-06-04T01:56:11.786Z,19.03
2023-06-04T01:57:11.738Z,19.01
2023-06-04T01:58:11.754Z,18.97
2023-06-04T01:59:11.764Z,18.92
2023-06-04T02:00:11.799Z,18.86
2023-06-04T02:02:11.860Z,18.89
2023-06-04T02:03:11.908Z,18.90
2023-06-04T02:04:11.762Z,18.91
2023-06-04T02:05:11.842Z,18.92
2023-06-04T02:06:11.794Z,18.89
2023-06-04T02:07:11.771Z,18.88
2023-06-04T02:09:11.800Z,18.86
2023-06-04T02:10:11.777Z,18.85
2023-06-04T02:11:11.831Z,18.86
2023-06-04T02:12:11.817Z,18.87
2023-06-04T02:13:11.821Z,18.82
2023-06-04T02:14:11.762Z,18.75
2023-06-04T02:15:11.799Z,18.74
2023-06-04T02:16:11.860Z,18.71
2023-06-04T02:18:11.838Z,18.73
2023-06-04T02:19:11.776Z,18.72
2023-06-04T02:20:11.782Z,18.73
2023-06-04T02:21:11.823Z,18.72
2023-06-04T02:22:11.823Z,18.71
2023-06-04T02:23:11.827Z,18.70
2023-06-04T02:24:11.833Z,18.67
2023-06-04T02:25:11.825Z,18.58
2023-06-04T02:26:11.891Z,18.49
2023-06-04T02:27:11.833Z,18.47
2023-06-04T02:28:11.798Z,18.49
2023-06-04T02:29:11.831Z,18.50
2023-06-04T02:30:11.882Z,18.52
2023-06-04T02:31:11.844Z,18.55
2023-06-04T02:33:11.928Z,18.54
2023-06-04T02:34:11.858Z,18.55
2023-06-04T02:35:11.892Z,18.57
2023-06-04T02:36:11.832Z,18.59
2023-06-04T02:37:11.836Z,18.62
2023-06-04T02:38:11.890Z,18.65
2023-06-04T02:39:11.882Z,18.66
2023-06-04T02:40:11.910Z,18.68
2023-06-04T02:41:11.847Z,18.71
2023-06-04T02:43:11.917Z,18.69
2023-06-04T02:44:11.899Z,18.65
2023-06-04T02:45:11.875Z,18.64
2023-06-04T02:46:11.947Z,18.63
2023-06-04T02:47:11.899Z,18.55
2023-06-04T02:48:11.939Z,18.48
2023-06-04T02:49:11.836Z,18.41
2023-06-04T02:50:11.939Z,18.36
2023-06-04T02:51:11.915Z,18.33
2023-06-04T02:52:11.927Z,18.34
2023-06-04T02:53:11.887Z,18.30
2023-06-04T02:54:11.879Z,18.29
2023-06-04T02:55:11.918Z,18.25
2023-06-04T02:56:11.937Z,18.21
2023-06-04T02:57:11.926Z,18.18
2023-06-04T03:00:11.893Z,18.17
2023-06-04T03:01:11.953Z,18.20
2023-06-04T03:02:11.898Z,18.25
2023-06-04T03:03:11.947Z,18.27
2023-06-04T03:04:11.937Z,18.30
2023-06-04T03:05:11.962Z,18.33
2023-06-04T03:07:11.908Z,18.36
2023-06-04T03:08:11.982Z,18.37
2023-06-04T03:11:11.907Z,18.36
2023-06-04T03:12:11.911Z,18.37
2023-06-04T03:13:11.919Z,18.36
2023-06-04T03:14:11.977Z,18.37
2023-06-04T03:15:11.944Z,18.40
2023-06-04T03:16:11.995Z,18.38
2023-06-04T03:17:12.065Z,18.36
2023-06-04T03:18:11.925Z,18.38
2023-06-04T03:19:12.011Z,18.40
2023-06-04T03:21:11.969Z,18.41
2023-06-04T03:22:11.966Z,18.43
2023-06-04T03:23:11.972Z,18.44
2023-06-04T03:24:12.011Z,18.46
2023-06-04T03:25:11.940Z,18.44
2023-06-04T03:27:12.027Z,18.45
2023-06-04T03:28:11.984Z,18.44
2023-06-04T03:30:12.068Z,18.42
2023-06-04T03:31:12.086Z,18.41
2023-06-04T03:32:12.040Z,18.43
2023-06-04T03:33:11.994Z,18.45
2023-06-04T03:34:12.018Z,18.46
2023-06-04T03:35:12.044Z,18.47
2023-06-04T03:36:12.033Z,18.50
2023-06-04T03:37:12.016Z,18.52
2023-06-04T03:38:11.995Z,18.57
2023-06-04T03:39:12.021Z,18.59
2023-06-04T03:40:12.017Z,18.62
2023-06-04T03:41:12.054Z,18.64
2023-06-04T03:42:12.070Z,18.65
2023-06-04T03:43:11.992Z,18.68
2023-06-04T03:44:12.056Z,18.63
2023-06-04T03:45:12.093Z,18.53
2023-06-04T03:46:12.096Z,18.44
2023-06-04T03:47:12.149Z,18.41
2023-06-04T03:48:12.088Z,18.40
2023-06-04T03:49:12.077Z,18.39
2023-06-04T03:51:12.059Z,18.41
2023-06-04T03:52:12.093Z,18.44
2023-06-04T03:53:12.081Z,18.46
2023-06-04T03:54:12.050Z,18.49
2023-06-04T03:55:12.078Z,18.53
2023-06-04T03:56:12.064Z,18.57
2023-06-04T03:57:12.095Z,18.59
2023-06-04T03:58:12.135Z,18.62
2023-06-04T03:59:12.047Z,18.64
2023-06-04T04:00:12.065Z,18.68
2023-06-04T04:01:12.099Z,18.74
2023-06-04T04:02:12.150Z,18.76
2023-06-04T04:04:12.140Z,18.78
2023-06-04T04:05:12.604Z,18.80
2023-06-04T04:06:12.116Z,18.85
2023-06-04T04:07:12.116Z,18.89
2023-06-04T04:08:12.113Z,18.91
2023-06-04T04:09:12.148Z,18.92
2023-06-04T04:11:12.154Z,18.90
2023-06-04T04:12:12.130Z,18.87
2023-06-04T04:13:12.123Z,18.85
2023-06-04T04:14:12.106Z,18.86
2023-06-04T04:15:12.136Z,18.88
2023-06-04T04:16:12.126Z,18.87
2023-06-04T04:17:12.239Z,18.86
2023-06-04T04:19:12.136Z,18.88
2023-06-04T04:20:12.111Z,18.87
2023-06-04T04:21:12.163Z,18.90
2023-06-04T04:22:12.138Z,18.91
2023-06-04T04:23:12.108Z,18.85
2023-06-04T04:24:12.091Z,18.84
2023-06-04T04:26:12.171Z,18.82
2023-06-04T04:27:12.362Z,18.79
2023-06-04T04:28:12.179Z,18.78
2023-06-04T04:29:12.168Z,18.79
2023-06-04T04:30:12.150Z,18.74
2023-06-04T04:31:12.238Z,18.73
2023-06-04T04:32:12.371Z,18.75
2023-06-04T04:33:12.139Z,18.79
2023-06-04T04:34:12.173Z,18.83
2023-06-04T04:35:12.149Z,18.88
2023-06-04T04:36:12.141Z,18.93
2023-06-04T04:37:12.205Z,18.97
2023-06-04T04:38:12.173Z,19.01
2023-06-04T04:39:12.199Z,18.99
2023-06-04T04:40:12.189Z,18.92
2023-06-04T04:41:12.145Z,18.87
2023-06-04T04:42:12.239Z,18.85
2023-06-04T04:43:12.139Z,18.84
2023-06-04T04:45:12.221Z,18.82
2023-06-04T04:47:12.204Z,18.84
2023-06-04T04:48:12.200Z,18.86
2023-06-04T04:49:12.383Z,18.84
2023-06-04T04:50:12.242Z,18.82
2023-06-04T04:51:12.201Z,18.83
2023-06-04T04:52:12.230Z,18.88
2023-06-04T04:53:12.214Z,18.95
2023-06-04T04:54:12.244Z,19.01
2023-06-04T04:55:12.214Z,19.06
2023-06-04T04:56:12.216Z,19.11
2023-06-04T04:57:14.238Z,19.12
2023-06-04T04:58:12.247Z,19.16
2023-06-04T04:59:12.236Z,19.18
2023-06-04T05:00:12.252Z,19.19
2023-06-04T05:01:12.202Z,19.20
2023-06-04T05:02:12.305Z,19.21
2023-06-04T05:03:12.280Z,19.24
2023-06-04T05:04:12.244Z,19.27
2023-06-04T05:05:12.276Z,19.32
2023-06-04T05:06:12.248Z,19.31
2023-06-04T05:07:12.304Z,19.30
2023-06-04T05:08:12.256Z,19.29
2023-06-04T05:09:12.236Z,19.28
2023-06-04T05:10:12.330Z,19.29
2023-06-04T05:12:12.312Z,19.32
2023-06-04T05:13:12.307Z,19.36
2023-06-04T05:14:12.273Z,19.39
2023-06-04T05:15:12.272Z,19.41
2023-06-04T05:16:12.320Z,19.46
2023-06-04T05:17:12.264Z,19.48
2023-06-04T05:18:12.257Z,19.51
2023-06-04T05:19:12.298Z,19.55
2023-06-04T05:20:12.327Z,19.57
2023-06-04T05:21:12.302Z,19.60
2023-06-04T05:22:12.301Z,19.62
2023-06-04T05:23:12.332Z,19.65
2023-06-04T05:24:12.304Z,19.68
2023-06-04T05:25:12.294Z,19.74
2023-06-04T05:26:12.315Z,19.77
2023-06-04T05:27:12.274Z,19.79
2023-06-04T05:28:12.370Z,19.82
2023-06-04T05:29:12.314Z,19.86
2023-06-04T05:30:12.305Z,19.89
2023-06-04T05:32:12.397Z,19.81
2023-06-04T05:33:12.352Z,19.78
2023-06-04T05:34:12.366Z,19.79
2023-06-04T05:35:12.328Z,19.82
2023-06-04T05:36:12.311Z,19.85
2023-06-04T05:37:12.695Z,19.78
2023-06-04T05:38:12.379Z,19.75
2023-06-04T05:39:12.348Z,19.74
2023-06-04T05:40:12.324Z,19.76
2023-06-04T05:41:12.398Z,19.78
2023-06-04T05:42:12.357Z,19.82
2023-06-04T05:43:12.304Z,19.84
2023-06-04T05:45:12.346Z,19.85
2023-06-04T05:46:12.467Z,19.87
2023-06-04T05:47:12.377Z,19.92
2023-06-04T05:48:12.436Z,19.96
2023-06-04T05:49:12.360Z,20.00
2023-06-04T05:51:12.367Z,19.99
2023-06-04T05:52:12.364Z,20.02
2023-06-04T05:55:12.360Z,20.04
2023-06-04T05:56:12.398Z,20.08
2023-06-04T05:57:12.361Z,20.13
2023-06-04T05:58:12.426Z,20.17
2023-06-04T05:59:12.442Z,20.15
2023-06-04T06:00:12.406Z,20.14
2023-06-04T06:02:12.439Z,20.15
2023-06-04T06:05:12.433Z,20.14
2023-06-04T06:06:12.376Z,20.13
2023-06-04T06:07:12.468Z,20.11
2023-06-04T06:08:12.409Z,20.08
2023-06-04T06:09:12.386Z,20.07
2023-06-04T06:10:12.380Z,20.05
2023-06-04T06:11:12.633Z,20.02
2023-06-04T06:12:12.429Z,19.99
2023-06-04T06:13:12.476Z,19.96
2023-06-04T06:14:12.408Z,19.92
2023-06-04T06:15:12.443Z,19.89
2023-06-04T06:16:12.494Z,19.86
2023-06-04T06:17:12.467Z,19.85
2023-06-04T06:18:12.445Z,19.82
2023-06-04T06:21:12.442Z,19.83
2023-06-04T06:22:12.444Z,19.81
2023-06-04T06:23:12.490Z,19.80
2023-06-04T06:24:12.532Z,19.79
2023-06-04T06:27:12.465Z,19.80
2023-06-04T06:30:12.495Z,19.78
2023-06-04T06:31:12.482Z,19.75
2023-06-04T06:32:12.439Z,19.70
2023-06-04T06:33:12.488Z,19.64
2023-06-04T06:34:12.544Z,19.58
2023-06-04T06:35:12.462Z,19.57
2023-06-04T06:36:12.510Z,19.59
2023-06-04T06:38:12.505Z,19.54
2023-06-04T06:40:12.487Z,19.53
2023-06-04T06:41:12.517Z,19.54
2023-06-04T06:42:12.522Z,19.56
2023-06-04T06:43:12.552Z,19.58
2023-06-04T06:44:12.524Z,19.59
2023-06-04T06:45:12.461Z,19.60
2023-06-04T06:46:12.522Z,19.59
2023-06-04T06:47:12.560Z,19.60
2023-06-04T06:48:12.496Z,19.57
2023-06-04T06:49:12.526Z,19.54
2023-06-04T06:50:12.519Z,19.55
2023-06-04T06:51:12.557Z,19.57
2023-06-04T06:52:12.546Z,19.58
2023-06-04T06:53:12.499Z,19.60
2023-06-04T06:54:12.544Z,19.62
2023-06-04T06:55:12.538Z,19.63
2023-06-04T06:56:12.564Z,19.65
2023-06-04T06:59:12.552Z,19.66
2023-06-04T07:00:12.574Z,19.68
2023-06-04T07:01:12.587Z,19.71
2023-06-04T07:02:12.604Z,19.75
2023-06-04T07:03:12.629Z,19.77
2023-06-04T07:04:12.551Z,19.82
2023-06-04T07:05:12.552Z,19.88
2023-06-04T07:06:12.514Z,19.92
2023-06-04T07:07:12.572Z,19.98
2023-06-04T07:08:12.639Z,20.04
2023-06-04T07:09:12.592Z,20.07
2023-06-04T07:10:12.570Z,20.12
2023-06-04T07:11:12.594Z,20.15
2023-06-04T07:12:12.601Z,20.16
2023-06-04T07:13:12.565Z,20.18
2023-06-04T07:14:12.550Z,20.20
2023-06-04T07:15:12.584Z,20.23
2023-06-04T07:16:12.646Z,20.25
2023-06-04T07:17:12.614Z,20.31
2023-06-04T07:18:12.661Z,20.41
2023-06-04T07:19:12.584Z,20.48
2023-06-04T07:20:12.615Z,20.55
2023-06-04T07:21:12.638Z,20.64
2023-06-04T07:22:12.610Z,20.70
2023-06-04T07:23:12.609Z,20.73
2023-06-04T07:24:12.646Z,20.76
2023-06-04T07:25:12.621Z,20.79
2023-06-04T07:26:12.647Z,20.80
2023-06-04T07:27:12.597Z,20.86
2023-06-04T07:28:12.666Z,20.92
2023-06-04T07:29:12.620Z,20.97
2023-06-04T07:30:12.648Z,21.05
2023-06-04T07:31:12.637Z,21.12
2023-06-04T07:32:12.681Z,21.19
2023-06-04T07:33:12.642Z,21.23
2023-06-04T07:34:12.656Z,21.32
2023-06-04T07:35:12.634Z,21.41
2023-06-04T07:36:12.681Z,21.51
2023-06-04T07:37:12.594Z,21.61
2023-06-04T07:38:12.642Z,21.74
2023-06-04T07:39:12.649Z,21.88
2023-06-04T07:40:12.596Z,21.98
2023-06-04T07:41:12.682Z,22.08
2023-06-04T07:42:12.693Z,22.22
2023-06-04T07:43:12.648Z,22.39
2023-06-04T07:44:12.680Z,22.59
2023-06-04T07:45:12.614Z,22.75
2023-06-04T07:46:12.764Z,22.90
2023-06-04T07:47:12.678Z,23.02
2023-06-04T07:48:12.700Z,23.09
2023-06-04T07:49:12.662Z,23.15
2023-06-04T07:50:12.669Z,23.23
2023-06-04T07:51:12.697Z,23.31
2023-06-04T07:52:12.715Z,23.39
2023-06-04T07:53:12.658Z,23.46
2023-06-04T07:54:12.685Z,23.57
2023-06-04T07:55:12.696Z,23.66
2023-06-04T07:56:12.679Z,23.75
2023-06-04T07:57:12.705Z,23.86
2023-06-04T07:58:12.686Z,23.94
2023-06-04T07:59:12.701Z,24.04
2023-06-04T08:00:12.725Z,24.18
2023-06-04T08:01:12.762Z,24.33
2023-06-04T08:02:12.710Z,24.43
2023-06-04T08:03:12.734Z,24.51
2023-06-04T08:04:12.883Z,24.59
2023-06-04T08:05:12.696Z,24.63
2023-06-04T08:06:12.723Z,24.72
2023-06-04T08:07:12.708Z,24.83
2023-06-04T08:08:12.722Z,24.95
2023-06-04T08:09:12.717Z,25.08
2023-06-04T08:10:12.774Z,25.25
2023-06-04T08:11:12.674Z,25.41
2023-06-04T08:12:12.776Z,25.58
2023-06-04T08:13:12.747Z,25.72
2023-06-04T08:14:12.763Z,25.84
2023-06-04T08:15:12.764Z,25.91
2023-06-04T08:16:12.751Z,25.99
2023-06-04T08:17:12.749Z,26.04
2023-06-04T08:18:12.769Z,26.06
2023-06-04T08:19:12.746Z,26.09
2023-06-04T08:20:12.754Z,26.08
2023-06-04T08:21:12.802Z,26.06
2023-06-04T08:22:12.808Z,26.00
2023-06-04T08:23:12.772Z,25.89
2023-06-04T08:24:12.726Z,25.85
2023-06-04T08:25:12.757Z,25.83
2023-06-04T08:26:12.808Z,25.85
2023-06-04T08:27:12.739Z,25.93
2023-06-04T08:28:12.767Z,26.02
2023-06-04T08:29:12.811Z,26.08
2023-06-04T08:30:12.789Z,26.11
2023-06-04T08:31:12.813Z,26.07
2023-06-04T08:32:12.761Z,26.05
2023-06-04T08:33:12.877Z,26.06
2023-06-04T08:34:12.824Z,26.09
2023-06-04T08:35:12.811Z,26.17
2023-06-04T08:36:12.822Z,26.26
2023-06-04T08:37:12.782Z,26.31
2023-06-04T08:38:12.815Z,26.44
2023-06-04T08:39:12.799Z,26.58
2023-06-04T08:40:12.803Z,26.74
2023-06-04T08:41:12.822Z,26.91
2023-06-04T08:42:12.810Z,27.00
2023-06-04T08:43:12.840Z,27.11
2023-06-04T08:44:12.842Z,27.29
2023-06-04T08:45:12.798Z,27.47
2023-06-04T08:46:12.902Z,27.68
2023-06-04T08:47:12.824Z,27.89
2023-06-04T08:48:12.864Z,28.08
2023-06-04T08:49:12.855Z,28.17
2023-06-04T08:50:12.938Z,28.19
2023-06-04T08:51:12.850Z,28.15
2023-06-04T08:52:12.818Z,28.10
2023-06-04T08:53:12.878Z,28.06
2023-06-04T08:54:12.835Z,27.99
2023-06-04T08:55:12.882Z,27.93
2023-06-04T08:56:12.990Z,27.87
2023-06-04T08:57:12.835Z,27.83
2023-06-04T08:58:12.838Z,27.78
2023-06-04T08:59:12.849Z,27.65
2023-06-04T09:00:12.822Z,27.51
2023-06-04T09:01:12.931Z,27.39
2023-06-04T09:02:12.866Z,27.31
2023-06-04T09:03:13.046Z,27.23
2023-06-04T09:04:13.690Z,27.18
2023-06-04T09:05:12.827Z,27.12
2023-06-04T09:06:12.895Z,27.07
2023-06-04T09:07:12.906Z,27.02
2023-06-04T09:08:12.837Z,26.94
2023-06-04T09:09:12.974Z,26.89
2023-06-04T09:10:14.039Z,26.84
2023-06-04T09:11:12.902Z,26.80
2023-06-04T09:12:12.914Z,26.76
2023-06-04T09:13:12.874Z,26.71
2023-06-04T09:14:12.951Z,26.67
2023-06-04T09:15:12.947Z,26.59
2023-06-04T09:16:12.975Z,26.48
2023-06-04T09:17:12.943Z,26.40
2023-06-04T09:18:12.892Z,26.35
2023-06-04T09:19:12.938Z,26.33
2023-06-04T09:20:12.944Z,26.32
2023-06-04T09:21:12.883Z,26.29
2023-06-04T09:22:12.941Z,26.28
2023-06-04T09:23:12.922Z,26.30
2023-06-04T09:24:12.889Z,26.35
2023-06-04T09:25:12.963Z,26.39
2023-06-04T09:26:12.959Z,26.43
2023-06-04T09:27:12.961Z,26.46
2023-06-04T09:28:12.942Z,26.45
2023-06-04T09:29:12.917Z,26.44
2023-06-04T09:30:12.932Z,26.45
2023-06-04T09:31:12.956Z,26.42
2023-06-04T09:34:12.964Z,26.40
2023-06-04T09:35:12.979Z,26.38
2023-06-04T09:36:12.914Z,26.37
2023-06-04T09:37:12.954Z,26.36
2023-06-04T09:38:12.984Z,26.34
2023-06-04T09:39:12.902Z,26.30
2023-06-04T09:40:12.984Z,26.26
2023-06-04T09:41:12.996Z,26.22
2023-06-04T09:42:13.029Z,26.18
2023-06-04T09:43:12.998Z,26.16
2023-06-04T09:44:12.947Z,26.11
2023-06-04T09:45:12.992Z,26.08
2023-06-04T09:47:13.008Z,26.10
2023-06-04T09:49:12.986Z,26.09
2023-06-04T09:50:13.004Z,26.08
2023-06-04T09:51:13.001Z,26.05
2023-06-04T09:52:12.957Z,26.01
2023-06-04T09:54:13.036Z,26.02
2023-06-04T09:55:13.017Z,26.01
2023-06-04T09:56:13.023Z,25.99
2023-06-04T09:57:12.994Z,26.00
2023-06-04T09:58:13.022Z,26.02
2023-06-04T09:59:13.029Z,26.05
2023-06-04T10:00:13.070Z,26.11
2023-06-04T10:01:13.039Z,26.15
2023-06-04T10:02:13.018Z,26.19
2023-06-04T10:03:13.144Z,26.23
2023-06-04T10:04:13.138Z,26.26
2023-06-04T10:05:12.993Z,26.25
2023-06-04T10:06:13.044Z,26.26
2023-06-04T10:07:13.059Z,26.29
2023-06-04T10:08:13.026Z,26.32
2023-06-04T10:09:13.067Z,26.39
2023-06-04T10:10:12.997Z,26.48
2023-06-04T10:11:13.040Z,26.60
2023-06-04T10:12:13.038Z,26.69
2023-06-04T10:13:13.079Z,26.80
2023-06-04T10:14:13.033Z,26.94
2023-06-04T10:15:13.044Z,27.04
2023-06-04T10:16:24.883Z,27.16
2023-06-04T10:17:13.227Z,27.27
2023-06-04T10:18:13.081Z,27.36
2023-06-04T10:19:13.085Z,27.53
2023-06-04T10:20:13.067Z,27.65
2023-06-04T10:21:13.067Z,27.71
2023-06-04T10:22:13.105Z,27.77
2023-06-04T10:23:13.052Z,27.83
2023-06-04T10:25:13.109Z,27.88
2023-06-04T10:26:13.073Z,27.94
2023-06-04T10:27:13.150Z,27.97
2023-06-04T10:28:13.108Z,27.99
2023-06-04T10:31:13.101Z,27.98
2023-06-04T10:32:13.177Z,28.05
2023-06-04T10:33:13.140Z,28.16
2023-06-04T10:34:13.124Z,28.28
2023-06-04T10:35:13.111Z,28.38
2023-06-04T10:36:13.133Z,28.53
2023-06-04T10:37:13.103Z,28.64
2023-06-04T10:38:16.929Z,28.70
2023-06-04T10:39:13.158Z,28.72
2023-06-04T10:40:13.146Z,28.70
2023-06-04T10:41:13.092Z,28.78
2023-06-04T10:42:13.133Z,28.84
2023-06-04T10:43:13.132Z,28.88
2023-06-04T10:44:13.182Z,28.94
2023-06-04T10:45:13.283Z,28.98
2023-06-04T10:46:13.135Z,29.06
2023-06-04T10:47:13.125Z,29.15
2023-06-04T10:48:13.262Z,29.22
2023-06-04T10:49:13.234Z,29.13
2023-06-04T10:50:13.167Z,29.02
2023-06-04T10:51:13.134Z,28.96
2023-06-04T10:53:13.151Z,29.03
2023-06-04T10:54:13.116Z,29.12
2023-06-04T10:55:13.180Z,29.24
2023-06-04T10:56:13.183Z,29.33
2023-06-04T10:57:13.173Z,29.30
2023-06-04T10:58:13.165Z,29.24
2023-06-04T10:59:13.156Z,29.12
2023-06-04T11:00:13.170Z,29.13
2023-06-04T11:01:13.214Z,29.11
2023-06-04T11:02:13.142Z,29.06
2023-06-04T11:03:13.308Z,28.93
2023-06-04T11:04:13.287Z,28.72
2023-06-04T11:05:13.157Z,28.38
2023-06-04T11:06:13.183Z,28.17
2023-06-04T11:07:13.156Z,27.98
2023-06-04T11:08:13.242Z,27.96
2023-06-04T11:09:13.217Z,28.11
2023-06-04T11:10:13.186Z,28.30
2023-06-04T11:11:13.189Z,28.37
2023-06-04T11:12:13.158Z,28.47
2023-06-04T11:13:13.199Z,28.58
2023-06-04T11:14:13.245Z,28.67
2023-06-04T11:15:17.249Z,28.79
2023-06-04T11:16:13.220Z,28.87
2023-06-04T11:17:13.254Z,28.88
2023-06-04T11:18:13.216Z,28.85
2023-06-04T11:19:13.261Z,28.69
2023-06-04T11:20:13.233Z,28.56
2023-06-04T11:21:13.254Z,28.48
2023-06-04T11:22:13.218Z,28.49
2023-06-04T11:24:13.231Z,28.55
2023-06-04T11:25:13.239Z,28.58
2023-06-04T11:26:13.249Z,28.51
2023-06-04T11:27:21.030Z,28.43
2023-06-04T11:28:13.224Z,28.17
2023-06-04T11:29:13.268Z,27.96
2023-06-04T11:30:13.292Z,27.88
2023-06-04T11:31:13.229Z,27.81
2023-06-04T11:32:14.373Z,27.64
2023-06-04T11:33:13.255Z,27.47
2023-06-04T11:34:13.271Z,27.38
2023-06-04T11:35:13.262Z,27.21
2023-06-04T11:36:13.264Z,26.87
2023-06-04T11:37:13.285Z,26.56
2023-06-04T11:38:13.216Z,26.61
2023-06-04T11:39:13.258Z,26.79
2023-06-04T11:40:13.304Z,26.96
2023-06-04T11:41:13.240Z,27.12
2023-06-04T11:42:13.328Z,27.17
2023-06-04T11:43:13.241Z,27.03
2023-06-04T11:44:13.319Z,26.88
2023-06-04T11:45:13.319Z,26.62
2023-06-04T11:46:13.281Z,26.48
2023-06-04T11:48:13.409Z,26.40
2023-06-04T11:49:13.339Z,26.25
2023-06-04T11:50:13.331Z,26.20
2023-06-04T11:51:13.269Z,26.07
2023-06-04T11:52:17.447Z,26.02
2023-06-04T11:53:13.346Z,26.08
2023-06-04T11:54:13.278Z,26.19
2023-06-04T11:55:13.338Z,26.38
2023-06-04T11:56:13.361Z,26.50
2023-06-04T11:57:13.316Z,26.62
2023-06-04T11:58:13.350Z,26.78
2023-06-04T11:59:13.314Z,26.97
2023-06-04T12:00:13.445Z,27.15
2023-06-04T12:01:13.323Z,27.20
2023-06-04T12:02:13.365Z,27.12
2023-06-04T12:03:13.487Z,27.06
2023-06-04T12:04:13.308Z,27.03
2023-06-04T12:05:13.355Z,27.08
2023-06-04T12:06:13.585Z,27.07
2023-06-04T12:07:13.313Z,27.16
2023-06-04T12:08:13.364Z,27.23
2023-06-04T12:09:13.355Z,27.11
2023-06-04T12:10:13.382Z,26.82
2023-06-04T12:11:13.385Z,26.65
2023-06-04T12:12:13.335Z,26.54
2023-06-04T12:13:13.374Z,26.49
2023-06-04T12:14:13.389Z,26.55
2023-06-04T12:15:13.408Z,26.70
2023-06-04T12:16:13.397Z,26.75
2023-06-04T12:17:13.444Z,26.80
2023-06-04T12:18:13.438Z,26.91
2023-06-04T12:19:13.441Z,26.95
2023-06-04T12:20:13.379Z,27.01
2023-06-04T12:21:13.394Z,27.12
2023-06-04T12:22:13.429Z,27.31
2023-06-04T12:23:13.380Z,27.44
2023-06-04T12:24:13.402Z,27.39
2023-06-04T12:25:13.347Z,27.34
2023-06-04T12:26:13.532Z,27.37
2023-06-04T12:27:13.405Z,27.21
2023-06-04T12:28:13.426Z,26.96
2023-06-04T12:29:17.701Z,26.70
2023-06-04T12:30:13.375Z,26.61
2023-06-04T12:31:13.434Z,26.59
2023-06-04T12:32:13.429Z,26.57
2023-06-04T12:35:13.385Z,26.56
2023-06-04T12:36:13.444Z,26.58
2023-06-04T12:38:13.436Z,26.59
2023-06-04T12:39:13.440Z,26.53
2023-06-04T12:41:13.483Z,26.54
2023-06-04T12:42:13.449Z,26.51
2023-06-04T12:45:13.685Z,26.63
2023-06-04T12:46:13.491Z,26.72
2023-06-04T12:47:13.571Z,26.65
2023-06-04T12:48:13.491Z,26.68
2023-06-04T12:49:13.450Z,26.66
2023-06-04T12:50:13.494Z,26.61
2023-06-04T12:51:13.440Z,26.50
2023-06-04T12:52:13.461Z,26.36
2023-06-04T12:53:13.445Z,26.24
2023-06-04T12:54:13.434Z,26.15
2023-06-04T12:55:13.516Z,26.14
2023-06-04T12:56:13.461Z,26.18
2023-06-04T12:57:13.476Z,26.05
2023-06-04T12:58:13.505Z,25.97
2023-06-04T12:59:13.452Z,25.87
2023-06-04T13:00:13.492Z,25.81
2023-06-04T13:01:13.506Z,25.82
2023-06-04T13:03:13.565Z,25.71
2023-06-04T13:04:13.591Z,25.73
2023-06-04T13:05:13.544Z,25.82
2023-06-04T13:06:17.902Z,25.94
2023-06-04T13:07:13.548Z,25.88
2023-06-04T13:08:13.546Z,25.84
2023-06-04T13:09:13.471Z,25.85
2023-06-04T13:10:13.541Z,25.78
2023-06-04T13:11:13.539Z,25.79
2023-06-04T13:13:13.511Z,25.83
2023-06-04T13:14:13.520Z,25.92
2023-06-04T13:15:13.580Z,26.09
2023-06-04T13:16:13.596Z,26.21
2023-06-04T13:17:22.206Z,26.27
2023-06-04T13:19:13.573Z,26.34
2023-06-04T13:20:13.555Z,26.30
2023-06-04T13:21:13.538Z,26.33
2023-06-04T13:22:13.516Z,26.23
2023-06-04T13:23:13.565Z,26.16
2023-06-04T13:24:13.570Z,26.13
2023-06-04T13:25:13.561Z,26.05
2023-06-04T13:26:13.566Z,26.01
2023-06-04T13:27:13.567Z,25.96
2023-06-04T13:30:13.576Z,26.02
2023-06-04T13:31:13.558Z,26.04
2023-06-04T13:32:13.891Z,26.13
2023-06-04T13:33:13.748Z,26.06
2023-06-04T13:34:27.178Z,26.05
2023-06-04T13:35:13.531Z,25.97
2023-06-04T13:36:13.596Z,25.91
2023-06-04T13:37:13.586Z,25.88
2023-06-04T13:38:13.555Z,25.91
2023-06-04T13:39:13.543Z,26.00
2023-06-04T13:40:13.600Z,26.09
2023-06-04T13:41:13.609Z,26.15
2023-06-04T13:42:13.580Z,26.16
2023-06-04T13:43:18.116Z,26.07
2023-06-04T13:44:13.599Z,26.03
2023-06-04T13:45:13.604Z,26.01
2023-06-04T13:46:13.748Z,26.03
2023-06-04T13:47:13.593Z,26.11
2023-06-04T13:48:13.633Z,26.04
2023-06-04T13:49:13.616Z,26.00
2023-06-04T13:50:13.630Z,25.99
2023-06-04T13:51:13.596Z,26.00
2023-06-04T13:52:13.630Z,25.98
2023-06-04T13:53:13.582Z,25.97
2023-06-04T13:54:13.769Z,26.05
2023-06-04T13:55:13.629Z,26.14
2023-06-04T13:56:13.638Z,26.20
2023-06-04T13:57:13.674Z,26.19
2023-06-04T13:59:13.736Z,26.10
2023-06-04T14:00:13.681Z,26.06
2023-06-04T14:01:13.751Z,26.03
2023-06-04T14:02:13.710Z,26.07
2023-06-04T14:03:13.792Z,26.13
2023-06-04T14:04:13.694Z,26.28
2023-06-04T14:05:13.713Z,26.26
2023-06-04T14:06:14.092Z,26.33
2023-06-04T14:07:13.682Z,26.30
2023-06-04T14:08:13.700Z,26.25
2023-06-04T14:10:13.746Z,26.27
2023-06-04T14:11:13.732Z,26.32
2023-06-04T14:12:13.729Z,26.43